Rechercher aéroport 
image banner adimage banner adimage banner ad
image banner ad

KLHM - Lincoln Rgnl/Karl Harder Field

Situé à Lincoln, United States

ICAO - LHM, IATA -

Données fournies par Airmate  

Information générale

Coordonnées: N38°54'33" W121°21'5"
Élévation : 121 feet MSL.
Variation magnétique : 14° East
Voir autres Aéroports à California

Données opérationnelles

Special qualification required
Heure actuelle UTC:
Heure actuelle locale:
Météo
METAR: KLHM 020655Z AUTO 15007KT 10SM CLR 22/10 A3000 RMK AO1
Voir NOTAMs / SUP AIP / TFR affectant cet aéroport [VIEW]
Fréquences de communication: [VIEW]

Pistes:

Identifiant RWYQFULongueur (ft)Largeur (ft)SurfaceLDA (ft)
15165°6001100ASPH
33345°6001100ASPH

Coordonnées de l'aéroport

Adresse: Lincoln United States

Autres services d'aviation

Écoles de pilotage

Lincoln Skyways, Inc.

Lincoln Skyways, Inc.

Norcal Flight Center, Llc

Norcal Flight Center, Llc

Flightquest, Llc

Flightquest, Llc

Vue satellite de KLHM